sensor_id;sensor_type;location;lat;lon;timestamp;pressure;altitude;pressure_sealevel;temperature;humidity
20021;BME280;10171;42.694;23.318;2022-08-02T01:11:30;94895.22;;;21.10;nan
20021;BME280;10171;42.694;23.318;2022-08-02T01:13:59;94903.69;;;21.04;nan
20021;BME280;10171;42.694;23.318;2022-08-02T01:16:29;94897.53;;;20.97;nan
20021;BME280;10171;42.694;23.318;2022-08-02T01:21:40;94898.16;;;21.07;nan
20021;BME280;10171;42.694;23.318;2022-08-02T01:24:29;94902.72;;;20.97;nan
20021;BME280;10171;42.694;23.318;2022-08-02T01:27:10;94904.88;;;20.70;nan
20021;BME280;10171;42.694;23.318;2022-08-02T01:29:50;94908.66;;;20.51;nan
20021;BME280;10171;42.694;23.318;2022-08-02T01:32:24;94905.44;;;20.33;nan
20021;BME280;10171;42.694;23.318;2022-08-02T01:37:43;94908.19;;;20.40;nan
20021;BME280;10171;42.694;23.318;2022-08-02T01:40:19;94905.13;;;20.12;nan
20021;BME280;10171;42.694;23.318;2022-08-02T01:42:49;94903.00;;;20.08;nan
20021;BME280;10171;42.694;23.318;2022-08-02T01:45:17;94903.47;;;19.87;nan
20021;BME280;10171;42.694;23.318;2022-08-02T01:47:45;94910.44;;;19.95;nan
20021;BME280;10171;42.694;23.318;2022-08-02T01:50:13;94910.09;;;19.90;nan
20021;BME280;10171;42.694;23.318;2022-08-02T01:52:47;94911.28;;;20.03;nan
20021;BME280;10171;42.694;23.318;2022-08-02T01:55:18;94911.63;;;20.00;nan
20021;BME280;10171;42.694;23.318;2022-08-02T01:57:48;94912.22;;;19.78;nan
20021;BME280;10171;42.694;23.318;2022-08-02T02:00:15;94916.44;;;19.71;nan
20021;BME280;10171;42.694;23.318;2022-08-02T02:02:43;94923.69;;;19.60;nan
20021;BME280;10171;42.694;23.318;2022-08-02T02:05:20;94925.81;;;19.65;nan
20021;BME280;10171;42.694;23.318;2022-08-02T02:07:49;94922.19;;;19.42;nan
20021;BME280;10171;42.694;23.318;2022-08-02T02:10:21;94920.97;;;19.69;nan
20021;BME280;10171;42.694;23.318;2022-08-02T02:15:16;94907.19;;;19.85;nan
20021;BME280;10171;42.694;23.318;2022-08-02T02:17:43;94915.78;;;19.85;nan
20021;BME280;10171;42.694;23.318;2022-08-02T02:20:14;94912.69;;;19.82;nan
20021;BME280;10171;42.694;23.318;2022-08-02T02:22:40;94914.81;;;19.78;nan
20021;BME280;10171;42.694;23.318;2022-08-02T02:27:32;94914.63;;;19.72;nan
20021;BME280;10171;42.694;23.318;2022-08-02T02:29:59;94920.34;;;19.91;nan
20021;BME280;10171;42.694;23.318;2022-08-02T02:32:26;94910.63;;;19.93;nan
20021;BME280;10171;42.694;23.318;2022-08-02T02:37:21;94916.47;;;20.19;nan
20021;BME280;10171;42.694;23.318;2022-08-02T02:39:51;94916.28;;;20.29;nan
20021;BME280;10171;42.694;23.318;2022-08-02T02:42:18;94904.63;;;20.33;nan
20021;BME280;10171;42.694;23.318;2022-08-02T02:44:47;94912.25;;;20.26;nan
20021;BME280;10171;42.694;23.318;2022-08-02T02:47:14;94906.44;;;20.16;nan
20021;BME280;10171;42.694;23.318;2022-08-02T02:49:43;94907.06;;;20.26;nan
20021;BME280;10171;42.694;23.318;2022-08-02T02:52:11;94903.53;;;20.11;nan
20021;BME280;10171;42.694;23.318;2022-08-02T02:54:39;94910.66;;;20.17;nan
20021;BME280;10171;42.694;23.318;2022-08-02T02:59:33;94921.94;;;19.84;nan
20021;BME280;10171;42.694;23.318;2022-08-02T03:02:00;94924.88;;;19.81;nan
20021;BME280;10171;42.694;23.318;2022-08-02T03:04:27;94922.28;;;19.81;nan
20021;BME280;10171;42.694;23.318;2022-08-02T03:09:18;94917.56;;;19.85;nan
20021;BME280;10171;42.694;23.318;2022-08-02T03:11:43;94919.50;;;19.83;nan
20021;BME280;10171;42.694;23.318;2022-08-02T03:14:10;94917.88;;;19.82;nan
20021;BME280;10171;42.694;23.318;2022-08-02T03:16:50;94919.97;;;19.63;nan
20021;BME280;10171;42.694;23.318;2022-08-02T03:19:18;94924.19;;;19.64;nan
20021;BME280;10171;42.694;23.318;2022-08-02T03:21:45;94931.13;;;19.63;nan
20021;BME280;10171;42.694;23.318;2022-08-02T03:24:10;94915.25;;;19.66;nan
20021;BME280;10171;42.694;23.318;2022-08-02T03:26:37;94917.53;;;19.69;nan
20021;BME280;10171;42.694;23.318;2022-08-02T03:29:02;94915.78;;;19.77;nan
20021;BME280;10171;42.694;23.318;2022-08-02T03:31:28;94914.47;;;19.58;nan
20021;BME280;10171;42.694;23.318;2022-08-02T03:33:58;94920.09;;;19.53;nan
20021;BME280;10171;42.694;23.318;2022-08-02T03:36:28;94919.31;;;19.53;nan
20021;BME280;10171;42.694;23.318;2022-08-02T03:38:55;94926.22;;;19.44;nan
20021;BME280;10171;42.694;23.318;2022-08-02T03:41:22;94924.13;;;19.40;nan
20021;BME280;10171;42.694;23.318;2022-08-02T03:43:49;94929.44;;;19.38;nan
20021;BME280;10171;42.694;23.318;2022-08-02T03:46:18;94923.66;;;19.44;nan
20021;BME280;10171;42.694;23.318;2022-08-02T03:48:45;94924.56;;;19.27;nan
20021;BME280;10171;42.694;23.318;2022-08-02T03:53:38;94938.91;;;19.14;nan
20021;BME280;10171;42.694;23.318;2022-08-02T04:05:48;94949.38;;;19.38;nan
20021;BME280;10171;42.694;23.318;2022-08-02T04:08:13;94961.34;;;19.31;nan
20021;BME280;10171;42.694;23.318;2022-08-02T04:13:29;94964.41;;;19.34;nan
20021;BME280;10171;42.694;23.318;2022-08-02T04:15:58;94961.84;;;19.42;nan
20021;BME280;10171;42.694;23.318;2022-08-02T04:18:31;94970.81;;;19.56;nan
20021;BME280;10171;42.694;23.318;2022-08-02T04:21:01;94962.69;;;19.51;nan
20021;BME280;10171;42.694;23.318;2022-08-02T04:23:29;94969.81;;;19.49;nan
20021;BME280;10171;42.694;23.318;2022-08-02T04:25:56;94970.91;;;19.38;nan
20021;BME280;10171;42.694;23.318;2022-08-02T04:28:23;94970.41;;;19.35;nan
20021;BME280;10171;42.694;23.318;2022-08-02T04:30:50;94970.78;;;19.48;nan
20021;BME280;10171;42.694;23.318;2022-08-02T04:33:16;94968.22;;;19.56;nan
20021;BME280;10171;42.694;23.318;2022-08-02T04:38:09;94959.69;;;19.79;nan
20021;BME280;10171;42.694;23.318;2022-08-02T04:40:34;94954.66;;;19.77;nan
20021;BME280;10171;42.694;23.318;2022-08-02T04:43:00;94963.88;;;19.80;nan
20021;BME280;10171;42.694;23.318;2022-08-02T04:45:25;94967.13;;;19.74;nan
20021;BME280;10171;42.694;23.318;2022-08-02T04:47:53;94960.72;;;20.02;nan
20021;BME280;10171;42.694;23.318;2022-08-02T04:52:45;94968.50;;;20.26;nan
20021;BME280;10171;42.694;23.318;2022-08-02T04:55:10;94972.91;;;20.25;nan
20021;BME280;10171;42.694;23.318;2022-08-02T04:57:36;94974.19;;;20.21;nan
20021;BME280;10171;42.694;23.318;2022-08-02T05:00:19;94978.41;;;20.22;nan
20021;BME280;10171;42.694;23.318;2022-08-02T05:02:45;94968.34;;;20.19;nan
20021;BME280;10171;42.694;23.318;2022-08-02T05:05:10;94972.06;;;20.09;nan
20021;BME280;10171;42.694;23.318;2022-08-02T05:07:36;94969.16;;;20.28;nan
20021;BME280;10171;42.694;23.318;2022-08-02T05:10:02;94974.53;;;20.42;nan
20021;BME280;10171;42.694;23.318;2022-08-02T05:12:27;94974.03;;;20.31;nan
20021;BME280;10171;42.694;23.318;2022-08-02T05:14:53;94975.16;;;20.36;nan
20021;BME280;10171;42.694;23.318;2022-08-02T05:17:18;94979.72;;;20.34;nan
20021;BME280;10171;42.694;23.318;2022-08-02T05:19:44;94977.13;;;20.42;nan
20021;BME280;10171;42.694;23.318;2022-08-02T05:22:09;94972.06;;;20.57;nan
20021;BME280;10171;42.694;23.318;2022-08-02T05:24:34;94975.78;;;20.70;nan
20021;BME280;10171;42.694;23.318;2022-08-02T05:27:00;94975.16;;;20.84;nan
20021;BME280;10171;42.694;23.318;2022-08-02T05:31:50;94974.00;;;20.87;nan
20021;BME280;10171;42.694;23.318;2022-08-02T05:36:42;94982.69;;;21.09;nan
20021;BME280;10171;42.694;23.318;2022-08-02T05:39:07;94984.59;;;21.23;nan
20021;BME280;10171;42.694;23.318;2022-08-02T05:41:33;94984.56;;;21.31;nan
20021;BME280;10171;42.694;23.318;2022-08-02T05:43:59;94983.75;;;21.39;nan
20021;BME280;10171;42.694;23.318;2022-08-02T05:46:24;94988.53;;;21.66;nan
20021;BME280;10171;42.694;23.318;2022-08-02T05:48:50;94990.66;;;21.54;nan
20021;BME280;10171;42.694;23.318;2022-08-02T05:51:22;94983.63;;;21.71;nan
20021;BME280;10171;42.694;23.318;2022-08-02T05:56:50;94991.16;;;21.88;nan
20021;BME280;10171;42.694;23.318;2022-08-02T05:59:32;94983.75;;;22.08;nan
20021;BME280;10171;42.694;23.318;2022-08-02T06:05:05;94985.81;;;22.12;nan
20021;BME280;10171;42.694;23.318;2022-08-02T06:07:36;94988.19;;;22.22;nan
20021;BME280;10171;42.694;23.318;2022-08-02T06:10:05;94995.56;;;22.41;nan
20021;BME280;10171;42.694;23.318;2022-08-02T06:12:32;94991.50;;;22.38;nan
20021;BME280;10171;42.694;23.318;2022-08-02T06:15:01;94984.13;;;22.19;nan
20021;BME280;10171;42.694;23.318;2022-08-02T06:17:29;94992.88;;;22.26;nan
20021;BME280;10171;42.694;23.318;2022-08-02T06:19:56;95002.06;;;22.44;nan
20021;BME280;10171;42.694;23.318;2022-08-02T06:22:28;95000.31;;;22.59;nan
20021;BME280;10171;42.694;23.318;2022-08-02T06:27:25;95004.38;;;22.76;nan
20021;BME280;10171;42.694;23.318;2022-08-02T06:29:53;95009.59;;;22.76;nan
20021;BME280;10171;42.694;23.318;2022-08-02T06:34:44;95010.03;;;22.65;nan
20021;BME280;10171;42.694;23.318;2022-08-02T06:40:17;95021.22;;;22.88;nan
20021;BME280;10171;42.694;23.318;2022-08-02T06:45:17;95016.44;;;23.14;nan
20021;BME280;10171;42.694;23.318;2022-08-02T06:47:43;95020.28;;;23.18;nan
20021;BME280;10171;42.694;23.318;2022-08-02T06:50:09;95002.94;;;23.11;nan
20021;BME280;10171;42.694;23.318;2022-08-02T06:57:27;95011.66;;;23.47;nan
20021;BME280;10171;42.694;23.318;2022-08-02T06:59:53;95006.19;;;23.56;nan
20021;BME280;10171;42.694;23.318;2022-08-02T07:02:19;95004.72;;;23.54;nan
20021;BME280;10171;42.694;23.318;2022-08-02T07:04:45;95002.84;;;23.62;nan
20021;BME280;10171;42.694;23.318;2022-08-02T07:07:10;95003.47;;;23.64;nan
20021;BME280;10171;42.694;23.318;2022-08-02T07:09:36;95003.56;;;23.56;nan
20021;BME280;10171;42.694;23.318;2022-08-02T07:12:01;94996.22;;;23.45;nan
20021;BME280;10171;42.694;23.318;2022-08-02T07:14:27;95006.00;;;23.43;nan
20021;BME280;10171;42.694;23.318;2022-08-02T07:16:52;95012.03;;;23.44;nan
20021;BME280;10171;42.694;23.318;2022-08-02T07:19:17;95012.84;;;23.44;nan
20021;BME280;10171;42.694;23.318;2022-08-02T07:21:43;95014.28;;;23.61;nan
20021;BME280;10171;42.694;23.318;2022-08-02T07:24:08;95008.75;;;23.71;nan
20021;BME280;10171;42.694;23.318;2022-08-02T07:26:34;94999.69;;;23.67;nan
20021;BME280;10171;42.694;23.318;2022-08-02T07:28:59;95001.56;;;23.73;nan
20021;BME280;10171;42.694;23.318;2022-08-02T07:31:24;95007.06;;;23.92;nan
20021;BME280;10171;42.694;23.318;2022-08-02T07:36:15;94998.56;;;24.04;nan
20021;BME280;10171;42.694;23.318;2022-08-02T07:38:41;94993.47;;;24.17;nan
20021;BME280;10171;42.694;23.318;2022-08-02T07:41:06;94992.06;;;24.15;nan
20021;BME280;10171;42.694;23.318;2022-08-02T07:43:32;94992.16;;;24.07;nan
20021;BME280;10171;42.694;23.318;2022-08-02T07:45:57;94986.06;;;24.00;nan
20021;BME280;10171;42.694;23.318;2022-08-02T07:48:22;94989.69;;;24.20;nan
20021;BME280;10171;42.694;23.318;2022-08-02T07:50:48;94992.81;;;24.30;nan
20021;BME280;10171;42.694;23.318;2022-08-02T07:53:14;94982.78;;;24.33;nan
20021;BME280;10171;42.694;23.318;2022-08-02T07:55:39;94987.38;;;24.31;nan
20021;BME280;10171;42.694;23.318;2022-08-02T08:00:30;94988.59;;;24.50;nan
20021;BME280;10171;42.694;23.318;2022-08-02T08:02:56;94989.72;;;24.62;nan
20021;BME280;10171;42.694;23.318;2022-08-02T08:05:21;94993.69;;;24.58;nan
20021;BME280;10171;42.694;23.318;2022-08-02T08:07:47;94987.34;;;24.67;nan
20021;BME280;10171;42.694;23.318;2022-08-02T08:12:38;94992.31;;;24.83;nan
20021;BME280;10171;42.694;23.318;2022-08-02T08:15:04;94986.88;;;24.84;nan
20021;BME280;10171;42.694;23.318;2022-08-02T08:17:30;94983.84;;;24.81;nan
20021;BME280;10171;42.694;23.318;2022-08-02T08:19:55;94978.25;;;24.84;nan
20021;BME280;10171;42.694;23.318;2022-08-02T08:22:22;94989.94;;;24.88;nan
20021;BME280;10171;42.694;23.318;2022-08-02T08:24:48;94984.63;;;24.81;nan
20021;BME280;10171;42.694;23.318;2022-08-02T08:29:43;94974.97;;;25.09;nan
20021;BME280;10171;42.694;23.318;2022-08-02T08:32:09;94980.53;;;25.20;nan
20021;BME280;10171;42.694;23.318;2022-08-02T08:34:35;94980.53;;;25.20;nan
20021;BME280;10171;42.694;23.318;2022-08-02T08:37:00;94982.94;;;25.22;nan
20021;BME280;10171;42.694;23.318;2022-08-02T08:39:28;94973.91;;;25.24;nan
20021;BME280;10171;42.694;23.318;2022-08-02T08:41:53;94983.00;;;25.28;nan
20021;BME280;10171;42.694;23.318;2022-08-02T08:46:47;94978.91;;;25.19;nan
20021;BME280;10171;42.694;23.318;2022-08-02T08:52:01;94982.63;;;25.31;nan
20021;BME280;10171;42.694;23.318;2022-08-02T08:54:28;94969.56;;;25.38;nan
20021;BME280;10171;42.694;23.318;2022-08-02T08:56:55;94964.97;;;25.46;nan
20021;BME280;10171;42.694;23.318;2022-08-02T08:59:21;94971.06;;;25.53;nan
20021;BME280;10171;42.694;23.318;2022-08-02T09:01:48;94969.72;;;25.70;nan
20021;BME280;10171;42.694;23.318;2022-08-02T09:04:14;94965.94;;;25.79;nan
20021;BME280;10171;42.694;23.318;2022-08-02T09:06:40;94971.44;;;25.91;nan
20021;BME280;10171;42.694;23.318;2022-08-02T09:09:07;94971.28;;;26.05;nan
20021;BME280;10171;42.694;23.318;2022-08-02T09:11:32;94965.66;;;26.15;nan
20021;BME280;10171;42.694;23.318;2022-08-02T09:13:59;94976.97;;;26.28;nan
20021;BME280;10171;42.694;23.318;2022-08-02T09:16:42;94969.31;;;26.20;nan
20021;BME280;10171;42.694;23.318;2022-08-02T09:19:24;94970.94;;;26.34;nan
20021;BME280;10171;42.694;23.318;2022-08-02T09:22:03;94968.94;;;26.43;nan
20021;BME280;10171;42.694;23.318;2022-08-02T09:24:40;94963.88;;;26.35;nan
20021;BME280;10171;42.694;23.318;2022-08-02T09:32:04;94960.81;;;26.05;nan
20021;BME280;10171;42.694;23.318;2022-08-02T09:34:50;94974.25;;;25.89;nan
20021;BME280;10171;42.694;23.318;2022-08-02T09:37:23;94964.84;;;26.14;nan
20021;BME280;10171;42.694;23.318;2022-08-02T09:44:52;94959.91;;;26.71;nan
20021;BME280;10171;42.694;23.318;2022-08-02T09:47:18;94963.34;;;26.91;nan
20021;BME280;10171;42.694;23.318;2022-08-02T09:49:46;94957.22;;;27.36;nan
20021;BME280;10171;42.694;23.318;2022-08-02T09:52:12;94951.28;;;27.73;nan
20021;BME280;10171;42.694;23.318;2022-08-02T09:54:39;94947.41;;;27.75;nan
20021;BME280;10171;42.694;23.318;2022-08-02T09:57:05;94943.03;;;27.56;nan
20021;BME280;10171;42.694;23.318;2022-08-02T09:59:31;94947.13;;;27.46;nan
20021;BME280;10171;42.694;23.318;2022-08-02T10:04:26;94932.63;;;27.87;nan
20021;BME280;10171;42.694;23.318;2022-08-02T10:06:54;94941.06;;;27.95;nan
20021;BME280;10171;42.694;23.318;2022-08-02T10:09:20;94938.56;;;27.70;nan
20021;BME280;10171;42.694;23.318;2022-08-02T10:14:13;94942.19;;;28.12;nan
20021;BME280;10171;42.694;23.318;2022-08-02T10:19:05;94938.59;;;28.44;nan
20021;BME280;10171;42.694;23.318;2022-08-02T10:24:06;94924.69;;;28.62;nan
20021;BME280;10171;42.694;23.318;2022-08-02T10:26:32;94926.78;;;28.78;nan
20021;BME280;10171;42.694;23.318;2022-08-02T10:28:58;94926.13;;;28.82;nan
20021;BME280;10171;42.694;23.318;2022-08-02T10:31:29;94916.41;;;29.07;nan
20021;BME280;10171;42.694;23.318;2022-08-02T10:36:24;94924.03;;;29.33;nan
20021;BME280;10171;42.694;23.318;2022-08-02T10:38:52;94916.75;;;29.53;nan
20021;BME280;10171;42.694;23.318;2022-08-02T10:51:54;94914.44;;;29.21;nan
20021;BME280;10171;42.694;23.318;2022-08-02T10:54:21;94909.66;;;29.53;nan
20021;BME280;10171;42.694;23.318;2022-08-02T10:56:49;94914.91;;;29.71;nan
20021;BME280;10171;42.694;23.318;2022-08-02T10:59:29;94909.47;;;29.84;nan
20021;BME280;10171;42.694;23.318;2022-08-02T11:04:32;94918.91;;;30.10;nan
20021;BME280;10171;42.694;23.318;2022-08-02T11:09:46;94919.34;;;29.17;nan
20021;BME280;10171;42.694;23.318;2022-08-02T11:12:14;94919.91;;;28.52;nan
20021;BME280;10171;42.694;23.318;2022-08-02T11:14:42;94916.38;;;28.03;nan
20021;BME280;10171;42.694;23.318;2022-08-02T11:17:14;94923.47;;;28.02;nan
20021;BME280;10171;42.694;23.318;2022-08-02T11:22:40;94921.97;;;28.99;nan
20021;BME280;10171;42.694;23.318;2022-08-02T11:27:51;94911.38;;;28.81;nan
20021;BME280;10171;42.694;23.318;2022-08-02T11:30:17;94916.06;;;28.79;nan
20021;BME280;10171;42.694;23.318;2022-08-02T11:32:44;94919.94;;;29.01;nan
20021;BME280;10171;42.694;23.318;2022-08-02T11:35:09;94920.53;;;29.21;nan
20021;BME280;10171;42.694;23.318;2022-08-02T11:37:36;94915.00;;;29.05;nan
20021;BME280;10171;42.694;23.318;2022-08-02T11:40:07;94910.22;;;29.37;nan
20021;BME280;10171;42.694;23.318;2022-08-02T11:42:35;94905.66;;;29.80;nan
20021;BME280;10171;42.694;23.318;2022-08-02T11:49:51;94904.09;;;30.09;nan
20021;BME280;10171;42.694;23.318;2022-08-02T11:52:17;94906.00;;;30.31;nan
20021;BME280;10171;42.694;23.318;2022-08-02T11:54:43;94896.91;;;30.57;nan
20021;BME280;10171;42.694;23.318;2022-08-02T11:57:19;94894.41;;;30.73;nan
20021;BME280;10171;42.694;23.318;2022-08-02T11:59:47;94898.78;;;30.90;nan
20021;BME280;10171;42.694;23.318;2022-08-02T12:04:40;94900.06;;;30.36;nan
20021;BME280;10171;42.694;23.318;2022-08-02T12:07:06;94891.63;;;29.68;nan
20021;BME280;10171;42.694;23.318;2022-08-02T12:09:34;94895.44;;;29.19;nan
20021;BME280;10171;42.694;23.318;2022-08-02T12:12:01;94911.91;;;29.14;nan
20021;BME280;10171;42.694;23.318;2022-08-02T12:14:29;94901.97;;;29.34;nan
20021;BME280;10171;42.694;23.318;2022-08-02T12:16:55;94899.50;;;29.86;nan
20021;BME280;10171;42.694;23.318;2022-08-02T12:19:41;94904.19;;;30.43;nan
20021;BME280;10171;42.694;23.318;2022-08-02T12:22:15;94900.94;;;30.71;nan
20021;BME280;10171;42.694;23.318;2022-08-02T12:24:46;94903.56;;;30.82;nan
20021;BME280;10171;42.694;23.318;2022-08-02T12:30:07;94893.97;;;31.10;nan
20021;BME280;10171;42.694;23.318;2022-08-02T12:32:34;94897.53;;;31.27;nan
20021;BME280;10171;42.694;23.318;2022-08-02T12:37:30;94898.66;;;31.31;nan
20021;BME280;10171;42.694;23.318;2022-08-02T12:42:20;94901.31;;;31.20;nan
20021;BME280;10171;42.694;23.318;2022-08-02T12:44:50;94895.22;;;31.08;nan
20021;BME280;10171;42.694;23.318;2022-08-02T12:49:41;94901.06;;;30.75;nan
20021;BME280;10171;42.694;23.318;2022-08-02T12:54:45;94893.50;;;30.90;nan
20021;BME280;10171;42.694;23.318;2022-08-02T12:57:18;94893.06;;;31.16;nan
20021;BME280;10171;42.694;23.318;2022-08-02T12:59:49;94890.16;;;31.29;nan
20021;BME280;10171;42.694;23.318;2022-08-02T13:04:41;94888.84;;;31.66;nan
20021;BME280;10171;42.694;23.318;2022-08-02T13:07:07;94881.03;;;31.71;nan
20021;BME280;10171;42.694;23.318;2022-08-02T13:09:40;94883.19;;;31.74;nan
20021;BME280;10171;42.694;23.318;2022-08-02T13:12:09;94877.94;;;31.51;nan
20021;BME280;10171;42.694;23.318;2022-08-02T13:14:35;94882.44;;;31.62;nan
20021;BME280;10171;42.694;23.318;2022-08-02T13:17:01;94878.06;;;31.56;nan
20021;BME280;10171;42.694;23.318;2022-08-02T13:19:26;94884.00;;;31.75;nan
20021;BME280;10171;42.694;23.318;2022-08-02T13:21:52;94883.28;;;32.07;nan
20021;BME280;10171;42.694;23.318;2022-08-02T13:24:18;94874.91;;;31.82;nan
20021;BME280;10171;42.694;23.318;2022-08-02T13:29:10;94880.22;;;31.59;nan
20021;BME280;10171;42.694;23.318;2022-08-02T13:34:06;94874.56;;;30.71;nan
20021;BME280;10171;42.694;23.318;2022-08-02T13:36:33;94884.53;;;30.69;nan
20021;BME280;10171;42.694;23.318;2022-08-02T13:41:24;94890.75;;;30.85;nan
20021;BME280;10171;42.694;23.318;2022-08-02T13:43:50;94886.03;;;30.76;nan
20021;BME280;10171;42.694;23.318;2022-08-02T13:48:41;94886.13;;;30.81;nan
20021;BME280;10171;42.694;23.318;2022-08-02T13:53:39;94878.25;;;31.15;nan
20021;BME280;10171;42.694;23.318;2022-08-02T13:56:05;94880.19;;;31.31;nan
20021;BME280;10171;42.694;23.318;2022-08-02T13:58:30;94883.88;;;31.70;nan
20021;BME280;10171;42.694;23.318;2022-08-02T14:00:59;94888.97;;;31.99;nan
20021;BME280;10171;42.694;23.318;2022-08-02T14:03:24;94887.84;;;31.95;nan
20021;BME280;10171;42.694;23.318;2022-08-02T14:05:50;94883.19;;;32.02;nan
20021;BME280;10171;42.694;23.318;2022-08-02T14:08:17;94884.34;;;31.78;nan
20021;BME280;10171;42.694;23.318;2022-08-02T14:13:09;94879.34;;;31.93;nan
20021;BME280;10171;42.694;23.318;2022-08-02T14:15:34;94885.06;;;31.62;nan
20021;BME280;10171;42.694;23.318;2022-08-02T14:18:00;94881.97;;;31.65;nan
20021;BME280;10171;42.694;23.318;2022-08-02T14:20:25;94880.47;;;31.69;nan
20021;BME280;10171;42.694;23.318;2022-08-02T14:22:51;94889.41;;;31.68;nan
20021;BME280;10171;42.694;23.318;2022-08-02T14:27:42;94873.50;;;31.80;nan
20021;BME280;10171;42.694;23.318;2022-08-02T14:30:07;94875.78;;;31.88;nan
20021;BME280;10171;42.694;23.318;2022-08-02T14:32:33;94885.66;;;31.41;nan
20021;BME280;10171;42.694;23.318;2022-08-02T14:34:58;94890.78;;;31.08;nan
20021;BME280;10171;42.694;23.318;2022-08-02T14:37:24;94891.06;;;30.66;nan
20021;BME280;10171;42.694;23.318;2022-08-02T14:42:14;94882.69;;;30.58;nan
20021;BME280;10171;42.694;23.318;2022-08-02T14:47:05;94887.22;;;30.39;nan
20021;BME280;10171;42.694;23.318;2022-08-02T14:49:31;94874.88;;;30.10;nan
20021;BME280;10171;42.694;23.318;2022-08-02T14:51:57;94877.41;;;29.87;nan
20021;BME280;10171;42.694;23.318;2022-08-02T14:54:24;94883.13;;;29.55;nan
20021;BME280;10171;42.694;23.318;2022-08-02T14:56:52;94880.81;;;29.40;nan
20021;BME280;10171;42.694;23.318;2022-08-02T14:59:18;94879.59;;;29.61;nan
20021;BME280;10171;42.694;23.318;2022-08-02T15:01:43;94873.88;;;29.93;nan
20021;BME280;10171;42.694;23.318;2022-08-02T15:06:38;94875.59;;;29.88;nan
20021;BME280;10171;42.694;23.318;2022-08-02T15:11:29;94873.34;;;29.73;nan
20021;BME280;10171;42.694;23.318;2022-08-02T15:13:54;94866.84;;;29.76;nan
20021;BME280;10171;42.694;23.318;2022-08-02T15:16:23;94871.00;;;29.65;nan
20021;BME280;10171;42.694;23.318;2022-08-02T15:18:48;94875.66;;;29.52;nan
20021;BME280;10171;42.694;23.318;2022-08-02T15:21:13;94886.31;;;29.39;nan
20021;BME280;10171;42.694;23.318;2022-08-02T15:26:05;94882.06;;;29.20;nan
20021;BME280;10171;42.694;23.318;2022-08-02T15:28:31;94880.97;;;29.27;nan
20021;BME280;10171;42.694;23.318;2022-08-02T15:30:57;94891.44;;;29.52;nan
20021;BME280;10171;42.694;23.318;2022-08-02T15:33:23;94888.53;;;29.60;nan
20021;BME280;10171;42.694;23.318;2022-08-02T15:35:49;94888.53;;;29.60;nan
20021;BME280;10171;42.694;23.318;2022-08-02T15:38:14;94894.56;;;29.42;nan
20021;BME280;10171;42.694;23.318;2022-08-02T15:40:40;94897.88;;;29.38;nan
20021;BME280;10171;42.694;23.318;2022-08-02T15:43:07;94894.41;;;29.37;nan
20021;BME280;10171;42.694;23.318;2022-08-02T15:45:34;94890.75;;;29.21;nan
20021;BME280;10171;42.694;23.318;2022-08-02T15:50:24;94900.69;;;29.43;nan
20021;BME280;10171;42.694;23.318;2022-08-02T15:52:50;94896.19;;;29.43;nan
20021;BME280;10171;42.694;23.318;2022-08-02T15:55:15;94894.97;;;29.46;nan
20021;BME280;10171;42.694;23.318;2022-08-02T15:57:41;94891.34;;;29.40;nan
20021;BME280;10171;42.694;23.318;2022-08-02T16:00:07;94896.59;;;29.40;nan
20021;BME280;10171;42.694;23.318;2022-08-02T16:02:33;94896.69;;;29.34;nan
20021;BME280;10171;42.694;23.318;2022-08-02T16:04:59;94899.97;;;29.29;nan
20021;BME280;10171;42.694;23.318;2022-08-02T16:09:49;94905.22;;;29.12;nan
20021;BME280;10171;42.694;23.318;2022-08-02T16:12:15;94898.72;;;28.96;nan
20021;BME280;10171;42.694;23.318;2022-08-02T16:14:40;94902.16;;;28.97;nan
20021;BME280;10171;42.694;23.318;2022-08-02T16:17:05;94912.31;;;28.93;nan
20021;BME280;10171;42.694;23.318;2022-08-02T16:19:31;94914.13;;;28.93;nan
20021;BME280;10171;42.694;23.318;2022-08-02T16:21:59;94904.28;;;28.82;nan
20021;BME280;10171;42.694;23.318;2022-08-02T16:26:51;94923.63;;;28.69;nan
20021;BME280;10171;42.694;23.318;2022-08-02T16:29:17;94913.72;;;28.65;nan
20021;BME280;10171;42.694;23.318;2022-08-02T16:34:09;94919.84;;;28.59;nan
20021;BME280;10171;42.694;23.318;2022-08-02T16:36:35;94915.25;;;28.54;nan
20021;BME280;10171;42.694;23.318;2022-08-02T16:39:00;94927.38;;;28.55;nan
20021;BME280;10171;42.694;23.318;2022-08-02T16:41:26;94921.09;;;28.56;nan
20021;BME280;10171;42.694;23.318;2022-08-02T16:43:51;94925.97;;;28.53;nan
20021;BME280;10171;42.694;23.318;2022-08-02T16:46:17;94929.19;;;28.55;nan
20021;BME280;10171;42.694;23.318;2022-08-02T16:48:42;94937.72;;;28.50;nan
20021;BME280;10171;42.694;23.318;2022-08-02T16:53:33;94941.03;;;28.39;nan
20021;BME280;10171;42.694;23.318;2022-08-02T16:55:58;94937.44;;;28.34;nan
20021;BME280;10171;42.694;23.318;2022-08-02T16:58:24;94941.91;;;28.33;nan
20021;BME280;10171;42.694;23.318;2022-08-02T17:00:50;94935.88;;;28.20;nan
20021;BME280;10171;42.694;23.318;2022-08-02T17:03:16;94933.91;;;28.15;nan
20021;BME280;10171;42.694;23.318;2022-08-02T17:05:42;94940.78;;;28.10;nan
20021;BME280;10171;42.694;23.318;2022-08-02T17:08:09;94941.38;;;28.12;nan
20021;BME280;10171;42.694;23.318;2022-08-02T17:13:06;94963.66;;;28.03;nan
20021;BME280;10171;42.694;23.318;2022-08-02T17:15:31;94953.63;;;27.87;nan
20021;BME280;10171;42.694;23.318;2022-08-02T17:17:57;94955.06;;;27.83;nan
20021;BME280;10171;42.694;23.318;2022-08-02T17:20:22;94948.66;;;27.73;nan
20021;BME280;10171;42.694;23.318;2022-08-02T17:22:48;94959.34;;;27.71;nan
20021;BME280;10171;42.694;23.318;2022-08-02T17:25:14;94957.56;;;27.59;nan
20021;BME280;10171;42.694;23.318;2022-08-02T17:27:42;94964.88;;;27.44;nan
20021;BME280;10171;42.694;23.318;2022-08-02T17:30:10;94961.66;;;27.42;nan